createdAt,value
2023-01-02T00:02:10.858Z,4.40
2023-01-02T00:04:37.125Z,4.50
2023-01-02T00:07:03.446Z,4.80
2023-01-02T00:09:29.760Z,4.40
2023-01-02T00:11:56.004Z,4.27
2023-01-02T00:14:22.255Z,4.87
2023-01-02T00:16:48.549Z,4.50
2023-01-02T00:19:14.780Z,4.33
2023-01-02T00:21:41.022Z,4.30
2023-01-02T00:24:07.457Z,4.77
2023-01-02T00:26:33.717Z,4.37
2023-01-02T00:29:00.747Z,5.00
2023-01-02T00:31:27.175Z,4.70
2023-01-02T00:33:53.454Z,4.33
2023-01-02T00:36:19.740Z,4.30
2023-01-02T00:38:46.002Z,4.80
2023-01-02T00:41:12.268Z,4.30
2023-01-02T00:43:39.982Z,4.40
2023-01-02T00:46:11.572Z,4.50
2023-01-02T00:48:38.673Z,4.00
2023-01-02T00:51:04.976Z,4.17
2023-01-02T00:53:31.214Z,4.57
2023-01-02T00:55:57.520Z,4.00
2023-01-02T00:58:24.474Z,3.97
2023-01-02T01:00:50.947Z,3.77
2023-01-02T01:03:17.315Z,4.57
2023-01-02T01:05:43.619Z,4.20
2023-01-02T01:08:09.848Z,4.07
2023-01-02T01:10:36.694Z,4.10
2023-01-02T01:13:03.229Z,4.27
2023-01-02T01:15:29.446Z,4.30
2023-01-02T01:17:55.719Z,3.97
2023-01-02T01:20:22.174Z,3.97
2023-01-02T01:22:48.423Z,4.70
2023-01-02T01:25:14.695Z,4.00
2023-01-02T01:27:40.933Z,3.97
2023-01-02T01:30:07.436Z,4.40
2023-01-02T01:32:34.474Z,4.13
2023-01-02T01:35:00.719Z,4.20
2023-01-02T01:37:26.985Z,4.23
2023-01-02T01:39:56.509Z,4.13
2023-01-02T01:42:23.255Z,4.30
2023-01-02T01:44:50.947Z,4.37
2023-01-02T01:47:21.185Z,4.00
2023-01-02T01:49:49.541Z,4.20
2023-01-02T01:52:17.114Z,4.57
2023-01-02T01:54:46.119Z,3.93
2023-01-02T01:57:26.786Z,4.53
2023-01-02T01:59:53.129Z,3.40
2023-01-02T02:02:19.988Z,3.60
2023-01-02T02:04:46.617Z,3.90
2023-01-02T02:07:13.245Z,3.90
2023-01-02T02:09:42.760Z,3.87
2023-01-02T02:12:09.402Z,3.70
2023-01-02T02:14:35.839Z,3.73
2023-01-02T02:17:12.940Z,3.47
2023-01-02T02:19:52.827Z,3.60
2023-01-02T02:22:28.069Z,3.83
2023-01-02T02:25:03.067Z,3.67
2023-01-02T02:27:43.413Z,3.37
2023-01-02T02:30:39.341Z,3.50
2023-01-02T02:33:05.544Z,3.43
2023-01-02T02:35:40.195Z,4.20
2023-01-02T02:38:18.648Z,3.70
2023-01-02T02:40:51.865Z,3.67
2023-01-02T02:43:40.870Z,3.80
2023-01-02T02:46:07.121Z,3.87
2023-01-02T02:48:36.107Z,3.63
2023-01-02T02:51:28.836Z,4.03
2023-01-02T02:53:58.556Z,3.93
2023-01-02T02:56:25.685Z,4.07
2023-01-02T02:58:52.311Z,4.43
2023-01-02T03:01:19.134Z,4.03
2023-01-02T03:03:45.418Z,3.83
2023-01-02T03:06:17.781Z,3.53
2023-01-02T03:08:56.445Z,4.17
2023-01-02T03:11:26.447Z,3.87
2023-01-02T03:13:52.732Z,4.20
2023-01-02T03:16:37.764Z,3.67
2023-01-02T03:19:08.831Z,3.93
2023-01-02T03:21:36.712Z,3.93
2023-01-02T03:24:06.764Z,3.90
2023-01-02T03:26:33.719Z,4.00
2023-01-02T03:29:03.564Z,4.30
2023-01-02T03:31:33.243Z,5.20
2023-01-02T03:34:04.460Z,4.33
2023-01-02T03:36:31.155Z,3.77
2023-01-02T03:39:11.212Z,3.60
2023-01-02T03:41:41.459Z,3.37
2023-01-02T03:44:09.238Z,3.37
2023-01-02T03:46:56.148Z,4.10
2023-01-02T03:49:25.842Z,4.27
2023-01-02T03:51:52.459Z,4.20
2023-01-02T03:54:19.256Z,4.03
2023-01-02T03:56:55.522Z,3.97
2023-01-02T03:59:21.767Z,4.27
2023-01-02T04:02:02.430Z,4.60
2023-01-02T04:04:51.233Z,4.30
2023-01-02T04:07:27.190Z,4.40
2023-01-02T04:09:53.478Z,4.40
2023-01-02T04:12:22.445Z,4.20
2023-01-02T04:14:50.823Z,4.10
2023-01-02T04:17:18.341Z,4.23
2023-01-02T04:19:48.438Z,4.17
2023-01-02T04:22:19.101Z,4.60
2023-01-02T04:24:48.219Z,4.37
2023-01-02T04:27:18.437Z,4.00
2023-01-02T04:29:44.693Z,3.80
2023-01-02T04:32:17.103Z,4.53
2023-01-02T04:34:44.020Z,4.03
2023-01-02T04:37:10.312Z,4.63
2023-01-02T04:39:37.055Z,4.00
2023-01-02T04:42:03.420Z,4.30
2023-01-02T04:44:29.657Z,4.03
2023-01-02T04:46:55.892Z,4.67
2023-01-02T04:49:22.905Z,4.30
2023-01-02T04:51:49.132Z,4.07
2023-01-02T04:54:15.352Z,4.20
2023-01-02T04:56:41.581Z,4.63
2023-01-02T04:59:07.881Z,4.03
2023-01-02T05:01:34.276Z,4.23
2023-01-02T05:04:00.572Z,4.37
2023-01-02T05:06:26.804Z,4.73
2023-01-02T05:08:53.117Z,4.40
2023-01-02T05:11:20.070Z,4.10
2023-01-02T05:13:46.430Z,4.00
2023-01-02T05:16:12.855Z,3.90
2023-01-02T05:18:40.330Z,4.47
2023-01-02T05:21:27.945Z,4.40
2023-01-02T05:23:54.535Z,4.03
2023-01-02T05:26:20.752Z,3.97
2023-01-02T05:28:46.998Z,4.27
2023-01-02T05:31:13.293Z,4.43
2023-01-02T05:33:39.568Z,4.00
2023-01-02T05:36:06.853Z,4.53
2023-01-02T05:38:34.008Z,4.60
2023-01-02T05:41:04.501Z,4.37
2023-01-02T05:43:32.163Z,4.17
2023-01-02T05:45:58.472Z,3.73
2023-01-02T05:48:24.768Z,4.17
2023-01-02T05:50:51.054Z,4.00
2023-01-02T05:53:17.754Z,3.90
2023-01-02T05:55:44.095Z,3.93
2023-01-02T05:58:10.399Z,3.80
2023-01-02T06:00:36.607Z,4.00
2023-01-02T06:03:02.983Z,3.70
2023-01-02T06:05:29.346Z,3.27
2023-01-02T06:07:55.569Z,3.80
2023-01-02T06:10:21.818Z,3.43
2023-01-02T06:12:48.156Z,3.57
2023-01-02T06:15:14.401Z,3.80
2023-01-02T06:17:40.727Z,3.40
2023-01-02T06:20:07.253Z,3.77
2023-01-02T06:22:33.521Z,3.00
2023-01-02T06:25:00.134Z,3.20
2023-01-02T06:27:26.402Z,3.40
2023-01-02T06:29:52.633Z,3.60
2023-01-02T06:32:19.001Z,3.30
2023-01-02T06:34:45.329Z,3.50
2023-01-02T06:37:11.586Z,3.30
2023-01-02T06:39:37.810Z,3.97
2023-01-02T06:42:04.082Z,3.57
2023-01-02T06:44:30.344Z,3.57
2023-01-02T06:46:56.568Z,3.10
2023-01-02T06:49:22.805Z,3.10
2023-01-02T06:51:49.036Z,3.50
2023-01-02T06:54:15.261Z,3.40
2023-01-02T06:56:41.477Z,3.37
2023-01-02T06:59:07.962Z,3.40
2023-01-02T07:01:34.325Z,3.43
2023-01-02T07:04:00.626Z,3.20
2023-01-02T07:06:27.868Z,3.30
2023-01-02T07:08:54.179Z,3.23
2023-01-02T07:11:22.039Z,3.20
2023-01-02T07:13:49.069Z,2.80
2023-01-02T07:16:16.078Z,2.90
2023-01-02T07:18:42.560Z,3.33
2023-01-02T07:21:10.506Z,3.50
2023-01-02T07:23:36.895Z,3.20
2023-01-02T07:26:04.282Z,3.17
2023-01-02T07:28:30.667Z,3.63
2023-01-02T07:30:57.744Z,3.17
2023-01-02T07:33:24.191Z,3.50
2023-01-02T07:35:50.491Z,2.77
2023-01-02T07:38:16.725Z,2.93
2023-01-02T07:40:42.957Z,3.23
2023-01-02T07:43:09.261Z,3.27
2023-01-02T07:45:35.535Z,3.17
2023-01-02T07:48:01.870Z,2.90
2023-01-02T07:50:28.201Z,3.13
2023-01-02T07:52:54.529Z,3.10
2023-01-02T07:55:20.899Z,2.93
2023-01-02T07:57:48.255Z,3.00
2023-01-02T08:00:15.412Z,3.07
2023-01-02T08:02:41.752Z,3.33
2023-01-02T08:05:08.276Z,3.27
2023-01-02T08:07:38.096Z,3.20
2023-01-02T08:10:07.319Z,2.77
2023-01-02T08:12:33.585Z,3.13
2023-01-02T08:14:59.804Z,3.00
2023-01-02T08:17:26.020Z,3.10
2023-01-02T08:19:52.248Z,3.30
2023-01-02T08:22:18.481Z,2.50
2023-01-02T08:24:44.725Z,3.00
2023-01-02T08:27:10.953Z,2.93
2023-01-02T08:29:37.190Z,2.80
2023-01-02T08:32:03.507Z,2.50
2023-01-02T08:34:29.740Z,2.93
2023-01-02T08:36:55.965Z,3.17
2023-01-02T08:39:22.212Z,2.80
2023-01-02T08:41:48.519Z,2.83
2023-01-02T08:44:16.141Z,3.00
2023-01-02T08:46:43.285Z,2.77
2023-01-02T08:49:10.063Z,2.87
2023-01-02T08:51:36.307Z,3.00
2023-01-02T08:54:02.567Z,3.50
2023-01-02T08:56:30.065Z,2.70
2023-01-02T08:58:57.582Z,3.10
2023-01-02T09:01:24.805Z,2.70
2023-01-02T09:03:52.169Z,2.93
2023-01-02T09:06:22.109Z,3.40
2023-01-02T09:08:48.940Z,2.80
2023-01-02T09:11:20.055Z,2.73
2023-01-02T09:13:46.325Z,3.07
2023-01-02T09:16:12.727Z,2.90
2023-01-02T09:18:40.805Z,2.50
2023-01-02T09:21:07.108Z,2.73
2023-01-02T09:23:33.737Z,2.90
2023-01-02T09:26:00.755Z,2.67
2023-01-02T09:28:27.689Z,3.10
2023-01-02T09:30:54.242Z,2.40
2023-01-02T09:33:20.940Z,3.17
2023-01-02T09:35:47.173Z,2.93
2023-01-02T09:38:13.445Z,3.07
2023-01-02T09:40:46.974Z,3.33
2023-01-02T09:43:14.736Z,2.47
2023-01-02T09:45:43.538Z,2.87
2023-01-02T09:48:14.899Z,3.10
2023-01-02T09:50:41.157Z,3.00
2023-01-02T09:53:07.419Z,3.00
2023-01-02T09:55:52.438Z,3.13
2023-01-02T09:58:37.086Z,2.50
2023-01-02T10:01:03.811Z,2.90
2023-01-02T10:03:36.842Z,2.63
2023-01-02T10:06:08.652Z,3.10
2023-01-02T10:08:35.200Z,2.53
2023-01-02T10:11:21.492Z,2.87
2023-01-02T10:14:18.700Z,2.30
2023-01-02T10:16:41.787Z,2.50
2023-01-02T10:19:14.407Z,2.60
2023-01-02T10:21:41.037Z,2.90
2023-01-02T10:24:16.216Z,2.67
2023-01-02T10:26:46.970Z,2.57
2023-01-02T10:29:33.482Z,2.43
2023-01-02T10:32:05.726Z,2.30
2023-01-02T10:34:42.096Z,2.33
2023-01-02T10:37:13.777Z,2.43
2023-01-02T10:39:40.993Z,2.60
2023-01-02T10:42:08.997Z,2.30
2023-01-02T10:44:37.389Z,2.43
2023-01-02T10:47:12.668Z,2.60
2023-01-02T10:49:40.133Z,2.40
2023-01-02T10:52:10.904Z,2.70
2023-01-02T10:54:51.057Z,3.10
2023-01-02T10:57:26.533Z,2.23
2023-01-02T10:59:58.245Z,2.30
2023-01-02T11:02:26.478Z,2.63
2023-01-02T11:04:52.798Z,2.30
2023-01-02T11:07:25.863Z,2.87
2023-01-02T11:09:56.312Z,2.57
2023-01-02T11:12:27.319Z,2.80
2023-01-02T11:15:08.943Z,2.83
2023-01-02T11:17:40.264Z,2.90
2023-01-02T11:20:18.026Z,3.27
2023-01-02T11:22:44.596Z,2.73
2023-01-02T11:25:22.283Z,3.17
2023-01-02T11:27:49.177Z,2.90
2023-01-02T11:30:32.508Z,2.60
2023-01-02T11:33:03.188Z,3.00
2023-01-02T11:35:33.871Z,2.37
2023-01-02T11:38:01.276Z,2.50
2023-01-02T11:40:29.854Z,2.50
2023-01-02T11:43:21.775Z,2.53
2023-01-02T11:45:48.241Z,2.50
2023-01-02T11:48:17.825Z,2.63
2023-01-02T11:50:44.278Z,2.40
2023-01-02T11:53:13.607Z,2.40
2023-01-02T11:55:52.894Z,2.60
2023-01-02T11:58:33.742Z,3.00
2023-01-02T12:01:12.190Z,2.80
2023-01-02T12:03:39.560Z,2.63
2023-01-02T12:06:15.334Z,2.50
2023-01-02T12:09:00.199Z,3.23
2023-01-02T12:11:26.399Z,2.20
2023-01-02T12:14:13.334Z,2.60
2023-01-02T12:16:39.610Z,2.57
2023-01-02T12:19:23.950Z,2.40
2023-01-02T12:21:57.593Z,2.40
2023-01-02T12:24:26.723Z,2.80
2023-01-02T12:27:02.640Z,2.40
2023-01-02T12:29:47.041Z,3.03
2023-01-02T12:32:25.778Z,2.47
2023-01-02T12:35:11.038Z,2.93
2023-01-02T12:37:49.285Z,2.70
2023-01-02T12:40:27.833Z,2.47
2023-01-02T12:43:17.870Z,2.63
2023-01-02T12:45:58.112Z,2.53
2023-01-02T12:48:39.836Z,2.30
2023-01-02T12:51:26.627Z,2.23
2023-01-02T12:54:19.185Z,3.00
2023-01-02T12:57:01.847Z,2.37
2023-01-02T12:59:46.939Z,2.80
2023-01-02T13:02:16.429Z,2.90
2023-01-02T13:04:46.618Z,2.40
2023-01-02T13:07:17.160Z,3.30
2023-01-02T13:09:44.543Z,2.33
2023-01-02T13:12:15.414Z,2.63
2023-01-02T13:14:44.236Z,3.00
2023-01-02T13:17:29.110Z,2.80
2023-01-02T13:19:58.993Z,3.10
2023-01-02T13:22:34.381Z,3.10
2023-01-02T13:25:01.357Z,2.87
2023-01-02T13:27:27.663Z,3.03
2023-01-02T13:29:53.979Z,2.90
2023-01-02T13:32:27.945Z,2.53
2023-01-02T13:34:55.236Z,2.73
2023-01-02T13:37:23.552Z,2.70
2023-01-02T13:39:57.508Z,2.80
2023-01-02T13:42:50.469Z,2.60
2023-01-02T13:45:19.230Z,2.60
2023-01-02T13:47:50.457Z,2.50
2023-01-02T13:50:19.685Z,2.67
2023-01-02T13:53:04.889Z,2.87
2023-01-02T13:55:31.593Z,2.37
2023-01-02T13:58:13.825Z,3.00
2023-01-02T14:00:41.482Z,2.50
2023-01-02T14:03:20.014Z,2.40
2023-01-02T14:05:58.674Z,2.60
2023-01-02T14:08:26.002Z,2.80
2023-01-02T14:10:53.996Z,3.20
2023-01-02T14:13:22.909Z,2.60
2023-01-02T14:16:08.020Z,2.30
2023-01-02T14:18:34.325Z,2.70
2023-01-02T14:21:00.583Z,2.60
2023-01-02T14:23:28.929Z,2.40
2023-01-02T14:25:55.314Z,2.90
2023-01-02T14:28:33.778Z,2.60
2023-01-02T14:31:15.171Z,3.03
2023-01-02T14:33:41.491Z,2.80
2023-01-02T14:36:09.079Z,2.57
2023-01-02T14:38:42.724Z,3.07
2023-01-02T14:41:50.359Z,3.00
2023-01-02T14:44:16.665Z,2.83
2023-01-02T14:46:43.083Z,2.37
2023-01-02T14:49:26.548Z,3.10
2023-01-02T15:00:31.049Z,2.70
2023-01-02T15:02:59.701Z,2.77
2023-01-02T15:05:34.548Z,2.90
2023-01-02T15:08:02.631Z,2.97
2023-01-02T15:10:28.946Z,3.10
2023-01-02T15:13:04.601Z,2.30
2023-01-02T15:15:34.292Z,2.30
2023-01-02T15:18:02.462Z,2.80
2023-01-02T15:20:30.027Z,2.40
2023-01-02T15:22:56.531Z,2.60
2023-01-02T15:25:52.323Z,2.90
2023-01-02T15:28:38.529Z,2.70
2023-01-02T15:31:11.584Z,2.47
2023-01-02T15:33:37.910Z,2.40
2023-01-02T15:36:12.144Z,2.50
2023-01-02T15:38:38.384Z,2.50
2023-01-02T15:41:04.729Z,1.93
2023-01-02T15:43:51.321Z,1.47
2023-01-02T15:46:17.808Z,1.63
2023-01-02T15:48:44.355Z,1.60
2023-01-02T15:51:17.629Z,1.30
2023-01-02T15:53:44.517Z,2.17
2023-01-02T15:56:30.323Z,1.73
2023-01-02T15:58:56.784Z,1.40
2023-01-02T16:01:23.317Z,0.93
2023-01-02T16:04:03.946Z,1.40
2023-01-02T16:06:35.611Z,1.30
2023-01-02T16:09:04.005Z,1.10
2023-01-02T16:11:31.057Z,1.23
2023-01-02T16:14:17.228Z,1.00
2023-01-02T16:16:54.507Z,1.10
2023-01-02T16:19:23.018Z,1.00
2023-01-02T16:21:50.967Z,1.20
2023-01-02T16:24:19.417Z,1.20
2023-01-02T16:26:45.888Z,1.30
2023-01-02T16:29:14.004Z,1.00
2023-01-02T16:31:54.211Z,1.10
2023-01-02T16:34:29.164Z,0.97
2023-01-02T16:37:14.010Z,0.80
2023-01-02T16:39:42.675Z,1.03
2023-01-02T16:42:27.465Z,1.00
2023-01-02T16:44:55.260Z,1.00
2023-01-02T16:47:25.423Z,0.90
2023-01-02T16:49:51.681Z,0.90
2023-01-02T16:52:17.930Z,0.80
2023-01-02T16:54:47.020Z,1.03
2023-01-02T16:57:19.557Z,1.20
2023-01-02T16:59:45.785Z,1.00
2023-01-02T17:02:14.268Z,0.97
2023-01-02T17:04:40.916Z,1.10
2023-01-02T17:07:07.143Z,0.73
2023-01-02T17:09:33.356Z,0.80
2023-01-02T17:12:03.073Z,0.60
2023-01-02T17:14:30.540Z,0.70
2023-01-02T17:16:56.851Z,0.70
2023-01-02T17:19:23.641Z,0.70
2023-01-02T17:21:50.982Z,0.90
2023-01-02T17:24:17.756Z,0.70
2023-01-02T17:26:44.920Z,0.70
2023-01-02T17:29:11.306Z,0.87
2023-01-02T17:31:37.881Z,0.80
2023-01-02T17:34:04.592Z,0.80
2023-01-02T17:36:31.309Z,0.87
2023-01-02T17:38:57.601Z,0.83
2023-01-02T17:41:23.902Z,0.63
2023-01-02T17:44:01.601Z,0.90
2023-01-02T17:49:15.293Z,0.83
2023-01-02T17:51:41.537Z,0.90
2023-01-02T17:54:07.828Z,0.90
2023-01-02T17:56:34.084Z,0.80
2023-01-02T17:59:00.395Z,0.63
2023-01-02T18:01:26.764Z,0.80
2023-01-02T18:03:53.371Z,0.80
2023-01-02T18:06:19.652Z,0.90
2023-01-02T18:08:46.203Z,0.77
2023-01-02T18:11:14.127Z,0.87
2023-01-02T18:13:42.107Z,0.70
2023-01-02T18:16:10.918Z,0.80
2023-01-02T18:18:37.171Z,0.80
2023-01-02T18:21:08.879Z,1.80
2023-01-02T18:23:35.140Z,0.80
2023-01-02T18:26:01.797Z,0.80
2023-01-02T18:28:28.091Z,0.80
2023-01-02T18:30:56.174Z,0.80
2023-01-02T18:33:23.639Z,0.70
2023-01-02T18:35:58.851Z,0.80
2023-01-02T18:38:29.832Z,0.70
2023-01-02T18:40:56.239Z,0.90
2023-01-02T18:43:26.180Z,0.70
2023-01-02T18:45:54.566Z,0.80
2023-01-02T18:48:21.497Z,0.70
2023-01-02T18:50:54.727Z,0.80
2023-01-02T18:53:21.939Z,0.80
2023-01-02T18:55:50.375Z,0.77
2023-01-02T18:58:16.569Z,0.70
2023-01-02T19:00:42.817Z,0.67
2023-01-02T19:03:09.092Z,0.60
2023-01-02T19:05:39.907Z,0.70
2023-01-02T19:08:14.930Z,1.00
2023-01-02T19:10:42.860Z,0.77
2023-01-02T19:13:15.440Z,0.93
2023-01-02T19:15:47.343Z,0.80
2023-01-02T19:18:24.175Z,0.87
2023-01-02T19:20:59.581Z,1.00
2023-01-02T19:23:35.108Z,1.00
2023-01-02T19:26:13.961Z,0.73
2023-01-02T19:28:43.207Z,0.90
2023-01-02T19:31:13.407Z,0.90
2023-01-02T19:33:40.870Z,0.87
2023-01-02T19:36:17.633Z,1.00
2023-01-02T19:38:44.739Z,0.90
2023-01-02T19:41:11.013Z,0.70
2023-01-02T19:43:37.586Z,0.70
2023-01-02T19:46:05.155Z,0.90
2023-01-02T19:48:31.511Z,0.93
2023-01-02T19:50:57.765Z,0.67
2023-01-02T19:53:24.132Z,0.63
2023-01-02T19:55:50.353Z,0.77
2023-01-02T19:58:16.661Z,0.80
2023-01-02T20:00:43.264Z,0.70
2023-01-02T20:03:10.195Z,0.80
2023-01-02T20:05:36.758Z,0.70
2023-01-02T20:08:03.056Z,0.80
2023-01-02T20:10:29.335Z,0.70
2023-01-02T20:12:55.580Z,0.73
2023-01-02T20:15:23.975Z,0.70
2023-01-02T20:17:51.237Z,0.90
2023-01-02T20:20:18.768Z,0.90
2023-01-02T20:22:45.305Z,0.70
2023-01-02T20:25:15.442Z,0.60
2023-01-02T20:27:41.744Z,0.83
2023-01-02T20:30:08.724Z,0.70
2023-01-02T20:32:34.976Z,0.90
2023-01-02T20:35:01.222Z,0.67
2023-01-02T20:37:27.466Z,1.00
2023-01-02T20:39:53.707Z,0.80
2023-01-02T20:42:20.826Z,1.00
2023-01-02T20:44:47.584Z,1.00
2023-01-02T20:47:13.923Z,0.90
2023-01-02T20:49:40.441Z,0.87
2023-01-02T20:52:07.085Z,1.00
2023-01-02T20:54:33.748Z,1.00
2023-01-02T20:57:00.027Z,1.00
2023-01-02T20:59:26.339Z,0.80
2023-01-02T21:01:52.693Z,0.93
2023-01-02T21:04:22.659Z,1.03
2023-01-02T21:06:54.349Z,0.90
2023-01-02T21:09:20.594Z,1.07
2023-01-02T21:11:46.895Z,0.90
2023-01-02T21:14:13.200Z,0.80
2023-01-02T21:16:39.570Z,1.10
2023-01-02T21:19:05.914Z,1.40
2023-01-02T21:21:32.319Z,0.97
2023-01-02T21:23:58.652Z,1.03
2023-01-02T21:26:24.971Z,1.00
2023-01-02T21:28:51.246Z,1.03
2023-01-02T21:31:18.323Z,1.03
2023-01-02T21:33:44.980Z,1.00
2023-01-02T21:36:11.283Z,1.00
2023-01-02T21:38:38.172Z,1.10
2023-01-02T21:41:23.309Z,1.10
2023-01-02T21:43:49.558Z,1.00
2023-01-02T21:46:15.882Z,1.30
2023-01-02T21:48:42.271Z,1.20
2023-01-02T21:51:08.547Z,1.30
2023-01-02T21:53:34.887Z,1.27
2023-01-02T21:56:01.168Z,1.10
2023-01-02T21:58:27.413Z,0.90
2023-01-02T22:00:53.678Z,1.33
2023-01-02T22:03:20.047Z,1.40
2023-01-02T22:05:46.398Z,1.20
2023-01-02T22:08:12.720Z,1.30
2023-01-02T22:10:38.972Z,1.10
2023-01-02T22:13:05.236Z,1.40
2023-01-02T22:15:31.457Z,1.10
2023-01-02T22:17:59.122Z,1.10
2023-01-02T22:20:25.815Z,1.20
2023-01-02T22:22:52.076Z,1.30
2023-01-02T22:25:18.330Z,1.20
2023-01-02T22:27:44.579Z,1.27
2023-01-02T22:30:23.392Z,1.40
2023-01-02T22:32:54.287Z,1.20
2023-01-02T22:35:20.684Z,1.30
2023-01-02T22:37:46.945Z,1.83
2023-01-02T22:40:13.276Z,1.30
2023-01-02T22:43:10.451Z,1.27
2023-01-02T22:45:39.908Z,1.47
2023-01-02T22:48:07.528Z,1.73
2023-01-02T22:50:39.818Z,1.40
2023-01-02T22:53:09.891Z,1.43
2023-01-02T22:55:36.128Z,1.60
2023-01-02T22:58:02.366Z,1.47
2023-01-02T23:00:28.653Z,1.60
2023-01-02T23:02:57.058Z,1.80
2023-01-02T23:05:23.313Z,1.90
2023-01-02T23:07:50.006Z,2.10
2023-01-02T23:10:16.441Z,1.80
2023-01-02T23:12:42.701Z,1.80
2023-01-02T23:15:11.036Z,2.10
2023-01-02T23:17:55.890Z,2.00
2023-01-02T23:20:22.121Z,1.80
2023-01-02T23:22:48.364Z,2.23
2023-01-02T23:25:15.426Z,1.80
2023-01-02T23:27:41.695Z,1.67
2023-01-02T23:30:08.427Z,1.80
2023-01-02T23:32:34.681Z,1.67
2023-01-02T23:35:00.907Z,1.70
2023-01-02T23:37:27.367Z,1.93
2023-01-02T23:39:53.637Z,1.77
2023-01-02T23:42:19.891Z,1.73
2023-01-02T23:44:46.137Z,1.70
2023-01-02T23:47:17.127Z,1.70
2023-01-02T23:49:45.239Z,1.93
2023-01-02T23:52:11.562Z,1.90
2023-01-02T23:54:37.852Z,2.00
2023-01-02T23:57:04.095Z,1.70
2023-01-02T23:59:30.336Z,1.70
